Time;durP1;ratioP1;P1;durP2;ratioP2;P2;SDS_P1;SDS_P2;PMS_P1;PMS_P2;Temp;Humidity;BMP_temperature;BMP_pressure;BME280_temperature;BME280_humidity;BME280_pressure;Samples;Min_cycle;Max_cycle;Signal;HPM_P1;HPM_P2
2023/01/04 00:00:40;;;;;;;0.10;0.10;;;;;;;;;;7378664;19;20738;-69
2023/01/04 00:03:09;;;;;;;0.00;0.00;;;;;;;;;;7378887;19;20627;-69
2023/01/04 00:05:38;;;;;;;0.10;0.10;;;;;;;;;;7378679;19;20643;-69
2023/01/04 00:08:07;;;;;;;0.10;0.10;;;;;;;;;;7377450;19;20729;-68
2023/01/04 00:10:39;;;;;;;0.10;0.10;;;;;;;;;;7379503;19;20591;-68
2023/01/04 00:13:08;;;;;;;0.10;0.10;;;;;;;;;;7378591;19;20745;-68
2023/01/04 00:15:37;;;;;;;0.10;0.10;;;;;;;;;;7378625;19;20679;-67
2023/01/04 00:18:06;;;;;;;0.10;0.10;;;;;;;;;;7378208;19;20607;-68
2023/01/04 00:20:35;;;;;;;0.10;0.10;;;;;;;;;;7375432;19;20760;-68
2023/01/04 00:23:03;;;;;;;0.00;0.00;;;;;;;;;;7378760;19;20607;-68
2023/01/04 00:25:32;;;;;;;0.10;0.10;;;;;;;;;;7378430;19;20740;-69
2023/01/04 00:28:04;;;;;;;0.10;0.10;;;;;;;;;;7374688;19;20670;-68
2023/01/04 00:30:33;;;;;;;0.10;0.10;;;;;;;;;;7379358;19;20595;-68
2023/01/04 00:33:02;;;;;;;0.10;0.10;;;;;;;;;;7378862;19;20702;-68
2023/01/04 00:35:31;;;;;;;0.10;0.10;;;;;;;;;;7377016;19;20626;-68
2023/01/04 00:38:00;;;;;;;0.10;0.10;;;;;;;;;;7375664;19;20666;-68
2023/01/04 00:40:28;;;;;;;0.10;0.10;;;;;;;;;;7378210;19;20677;-67
2023/01/04 00:42:57;;;;;;;0.10;0.10;;;;;;;;;;7377900;19;20623;-68
2023/01/04 00:45:29;;;;;;;0.10;0.10;;;;;;;;;;7378959;19;20754;-68
2023/01/04 00:47:57;;;;;;;0.10;0.10;;;;;;;;;;7376324;19;20730;-68
2023/01/04 00:50:26;;;;;;;0.10;0.10;;;;;;;;;;7377688;19;20741;-68
2023/01/04 00:52:55;;;;;;;0.10;0.10;;;;;;;;;;7377447;19;20652;-68
2023/01/04 00:55:24;;;;;;;0.10;0.10;;;;;;;;;;7374677;19;20635;-68
2023/01/04 00:57:53;;;;;;;0.10;0.10;;;;;;;;;;7374278;19;20717;-68
2023/01/04 01:00:22;;;;;;;0.10;0.10;;;;;;;;;;7376675;19;20768;-69
2023/01/04 01:02:54;;;;;;;0.10;0.10;;;;;;;;;;7376707;19;20672;-68
2023/01/04 01:05:23;;;;;;;0.10;0.10;;;;;;;;;;7378759;19;20743;-69
2023/01/04 01:07:51;;;;;;;0.10;0.10;;;;;;;;;;7375863;19;20749;-68
2023/01/04 01:10:21;;;;;;;0.10;0.10;;;;;;;;;;7377424;19;20671;-68
2023/01/04 01:12:49;;;;;;;0.10;0.10;;;;;;;;;;7376153;19;20675;-68
2023/01/04 01:15:18;;;;;;;0.10;0.10;;;;;;;;;;7374137;19;20691;-68
2023/01/04 01:17:47;;;;;;;0.10;0.10;;;;;;;;;;7376367;19;20635;-68
2023/01/04 01:20:19;;;;;;;0.10;0.10;;;;;;;;;;7371607;19;20757;-69
2023/01/04 01:22:47;;;;;;;0.10;0.10;;;;;;;;;;7377288;19;20607;-68
2023/01/04 01:25:19;;;;;;;0.10;0.10;;;;;;;;;;7374571;19;20683;-68
2023/01/04 01:27:50;;;;;;;0.10;0.10;;;;;;;;;;7374857;19;20659;-69
2023/01/04 01:30:20;;;;;;;0.10;0.10;;;;;;;;;;7374512;19;20627;-68
2023/01/04 01:32:49;;;;;;;0.10;0.10;;;;;;;;;;7376776;19;20622;-68
2023/01/04 01:35:21;;;;;;;0.10;0.10;;;;;;;;;;7373447;19;20676;-69
2023/01/04 01:37:57;;;;;;;0.10;0.10;;;;;;;;;;7375008;19;20701;-70
2023/01/04 01:40:26;;;;;;;0.10;0.10;;;;;;;;;;7375672;19;21309;-70
2023/01/04 01:42:56;;;;;;;0.10;0.10;;;;;;;;;;7376020;19;20646;-68
2023/01/04 01:45:28;;;;;;;0.10;0.10;;;;;;;;;;7374765;19;20665;-68
2023/01/04 01:48:00;;;;;;;0.10;0.10;;;;;;;;;;7372662;19;20700;-68
2023/01/04 01:50:34;;;;;;;0.00;0.00;;;;;;;;;;7375275;19;20630;-68
2023/01/04 01:53:03;;;;;;;0.10;0.10;;;;;;;;;;7376143;19;20732;-68
2023/01/04 01:55:33;;;;;;;0.10;0.10;;;;;;;;;;7374367;19;20599;-68
2023/01/04 01:58:03;;;;;;;0.10;0.10;;;;;;;;;;7373400;19;20665;-68
2023/01/04 02:00:32;;;;;;;0.10;0.10;;;;;;;;;;7375717;19;21392;-68
2023/01/04 02:03:14;;;;;;;0.10;0.10;;;;;;;;;;7376559;19;20740;-68
2023/01/04 02:05:46;;;;;;;0.10;0.10;;;;;;;;;;7375180;19;20755;-69
2023/01/04 02:08:15;;;;;;;0.10;0.10;;;;;;;;;;7376014;19;20729;-68
2023/01/04 02:10:44;;;;;;;0.10;0.10;;;;;;;;;;7376661;19;20730;-69
2023/01/04 02:13:15;;;;;;;0.10;0.10;;;;;;;;;;7374858;19;20713;-67
2023/01/04 02:15:51;;;;;;;0.10;0.10;;;;;;;;;;7372121;19;20765;-68
2023/01/04 02:18:23;;;;;;;0.10;0.10;;;;;;;;;;7373806;19;20622;-68
2023/01/04 02:20:58;;;;;;;0.10;0.10;;;;;;;;;;7376807;19;21414;-68
2023/01/04 02:23:45;;;;;;;0.10;0.10;;;;;;;;;;7373979;19;20714;-68
2023/01/04 02:26:22;;;;;;;0.10;0.10;;;;;;;;;;7375087;19;20623;-68
2023/01/04 02:29:09;;;;;;;0.10;0.10;;;;;;;;;;7373183;19;20658;-68
2023/01/04 02:31:42;;;;;;;0.10;0.10;;;;;;;;;;7374609;19;20603;-69
2023/01/04 02:34:13;;;;;;;0.10;0.10;;;;;;;;;;7371796;19;20649;-67
2023/01/04 02:36:46;;;;;;;0.10;0.10;;;;;;;;;;7372839;19;20773;-68
2023/01/04 02:39:21;;;;;;;0.10;0.10;;;;;;;;;;7372858;19;20643;-68
2023/01/04 02:41:53;;;;;;;0.10;0.10;;;;;;;;;;7373041;19;20735;-68
2023/01/04 02:47:11;;;;;;;0.10;0.10;;;;;;;;;;7378881;19;21534;-69
2023/01/04 02:52:22;;;;;;;0.10;0.10;;;;;;;;;;7380058;19;20665;-69
2023/01/04 02:54:52;;;;;;;0.10;0.10;;;;;;;;;;7380959;19;20623;-69
2023/01/04 02:57:28;;;;;;;0.10;0.10;;;;;;;;;;7379343;19;20689;-67
2023/01/04 03:00:03;;;;;;;0.10;0.10;;;;;;;;;;7380173;19;20610;-69
2023/01/04 03:08:20;;;;;;;0.10;0.10;;;;;;;;;;7379583;19;20721;-69
2023/01/04 03:10:51;;;;;;;0.10;0.10;;;;;;;;;;7381326;19;20606;-70
2023/01/04 03:13:20;;;;;;;0.10;0.10;;;;;;;;;;7379391;19;20648;-69
2023/01/04 03:15:52;;;;;;;0.10;0.10;;;;;;;;;;7379119;19;20672;-69
2023/01/04 03:18:25;;;;;;;0.10;0.10;;;;;;;;;;7379010;19;20641;-68
2023/01/04 03:20:55;;;;;;;0.10;0.10;;;;;;;;;;7378835;19;20717;-68
2023/01/04 03:37:07;;;;;;;0.10;0.10;;;;;;;;;;7376029;19;20678;-68
2023/01/04 03:50:47;;;;;;;0.10;0.10;;;;;;;;;;7377215;19;20994;-68
2023/01/04 03:53:17;;;;;;;0.10;0.10;;;;;;;;;;7378537;19;20630;-68
2023/01/04 03:55:46;;;;;;;0.10;0.10;;;;;;;;;;7374395;19;20670;-69
2023/01/04 03:58:15;;;;;;;0.10;0.10;;;;;;;;;;7377213;19;20634;-68
2023/01/04 04:00:44;;;;;;;0.10;0.10;;;;;;;;;;7379319;19;20602;-68
2023/01/04 04:03:13;;;;;;;0.10;0.10;;;;;;;;;;7377916;19;20682;-68
2023/01/04 04:08:30;;;;;;;0.10;0.10;;;;;;;;;;7378428;19;20645;-68
2023/01/04 04:11:29;;;;;;;0.10;0.10;;;;;;;;;;7379774;19;20658;-69
2023/01/04 04:13:51;;;;;;;0.10;0.10;;;;;;;;;;7378736;19;21291;-68
2023/01/04 04:16:22;;;;;;;0.10;0.10;;;;;;;;;;7377665;19;20684;-68
2023/01/04 04:18:52;;;;;;;0.00;0.00;;;;;;;;;;7377724;19;20626;-68
2023/01/04 04:21:21;;;;;;;0.10;0.10;;;;;;;;;;7378141;19;20626;-68
2023/01/04 04:23:53;;;;;;;0.10;0.10;;;;;;;;;;7377285;19;20638;-68
2023/01/04 04:26:22;;;;;;;0.10;0.10;;;;;;;;;;7377200;19;20700;-69
2023/01/04 04:28:51;;;;;;;0.10;0.10;;;;;;;;;;7377064;19;20594;-68
2023/01/04 04:31:20;;;;;;;0.10;0.10;;;;;;;;;;7377737;19;20676;-69
2023/01/04 04:33:50;;;;;;;0.10;0.10;;;;;;;;;;7376817;19;20619;-69
2023/01/04 04:36:19;;;;;;;0.10;0.10;;;;;;;;;;7376163;19;20670;-67
2023/01/04 04:38:49;;;;;;;0.10;0.10;;;;;;;;;;7377734;19;20671;-70
2023/01/04 04:44:06;;;;;;;0.10;0.10;;;;;;;;;;7375692;19;20713;-69
2023/01/04 04:46:38;;;;;;;0.10;0.10;;;;;;;;;;7378678;19;20607;-68
2023/01/04 04:49:08;;;;;;;0.10;0.10;;;;;;;;;;7378841;19;20668;-68
2023/01/04 04:51:37;;;;;;;0.10;0.10;;;;;;;;;;7378295;19;20607;-68
2023/01/04 04:54:06;;;;;;;0.10;0.10;;;;;;;;;;7377948;19;20587;-67
2023/01/04 04:56:38;;;;;;;0.10;0.10;;;;;;;;;;7376346;19;20627;-68
2023/01/04 04:59:07;;;;;;;0.10;0.10;;;;;;;;;;7376113;19;20686;-68
2023/01/04 05:01:36;;;;;;;0.10;0.10;;;;;;;;;;7377137;19;21440;-68
2023/01/04 05:04:05;;;;;;;0.10;0.10;;;;;;;;;;7376318;19;20660;-68
2023/01/04 05:06:34;;;;;;;0.10;0.10;;;;;;;;;;7373695;19;20757;-68
2023/01/04 05:09:04;;;;;;;0.00;0.00;;;;;;;;;;7377666;19;20607;-70
2023/01/04 05:14:20;;;;;;;0.10;0.10;;;;;;;;;;7375920;19;20701;-69
2023/01/04 05:16:51;;;;;;;0.10;0.10;;;;;;;;;;7374793;19;20632;-68
2023/01/04 05:19:21;;;;;;;0.10;0.10;;;;;;;;;;7376368;19;20625;-70
2023/01/04 05:21:51;;;;;;;0.10;0.10;;;;;;;;;;7375970;19;20659;-70
2023/01/04 05:24:23;;;;;;;0.10;0.10;;;;;;;;;;7373714;19;20769;-70
2023/01/04 05:26:55;;;;;;;0.10;0.10;;;;;;;;;;7375258;19;20643;-69
2023/01/04 05:32:07;;;;;;;0.00;0.00;;;;;;;;;;7378087;19;20592;-70
2023/01/04 05:34:37;;;;;;;0.10;0.10;;;;;;;;;;7377687;19;20631;-70
2023/01/04 05:37:08;;;;;;;0.10;0.10;;;;;;;;;;7374704;19;21299;-68
2023/01/04 05:39:38;;;;;;;0.10;0.10;;;;;;;;;;7378726;19;20607;-69
2023/01/04 05:44:51;;;;;;;0.00;0.00;;;;;;;;;;7373190;19;20674;-70
2023/01/04 05:47:21;;;;;;;0.00;0.00;;;;;;;;;;7373321;19;20781;-69
2023/01/04 05:49:50;;;;;;;0.00;0.00;;;;;;;;;;7373806;19;20615;-69
2023/01/04 05:52:18;;;;;;;0.10;0.10;;;;;;;;;;7374708;19;20691;-69
2023/01/04 05:54:47;;;;;;;0.10;0.10;;;;;;;;;;7374799;19;20751;-70
2023/01/04 05:57:20;;;;;;;0.10;0.10;;;;;;;;;;7375113;19;20631;-70
2023/01/04 05:59:49;;;;;;;0.10;0.10;;;;;;;;;;7374459;19;20630;-71
2023/01/04 06:02:19;;;;;;;0.10;0.10;;;;;;;;;;7375657;19;20595;-72
2023/01/04 06:04:48;;;;;;;0.10;0.10;;;;;;;;;;7375316;19;20607;-73
2023/01/04 06:07:17;;;;;;;0.10;0.10;;;;;;;;;;7374188;19;20746;-73
2023/01/04 06:09:46;;;;;;;0.10;0.10;;;;;;;;;;7374823;19;21426;-70
2023/01/04 06:12:16;;;;;;;0.00;0.00;;;;;;;;;;7374266;19;20735;-69
2023/01/04 06:14:47;;;;;;;0.10;0.10;;;;;;;;;;7373090;19;20681;-68
2023/01/04 06:17:16;;;;;;;0.10;0.10;;;;;;;;;;7372004;19;21220;-69
2023/01/04 06:19:45;;;;;;;0.10;0.10;;;;;;;;;;7372279;19;20603;-68
2023/01/04 06:22:14;;;;;;;0.10;0.10;;;;;;;;;;7374382;19;20734;-68
2023/01/04 06:24:43;;;;;;;0.10;0.10;;;;;;;;;;7374137;19;20717;-69
2023/01/04 06:27:11;;;;;;;0.10;0.10;;;;;;;;;;7371005;19;20658;-69
2023/01/04 06:29:41;;;;;;;0.00;0.00;;;;;;;;;;7374859;19;20718;-69
2023/01/04 06:32:12;;;;;;;0.10;0.10;;;;;;;;;;7372225;19;20626;-68
2023/01/04 06:34:41;;;;;;;0.10;0.10;;;;;;;;;;7374922;19;20694;-67
2023/01/04 06:37:10;;;;;;;0.00;0.00;;;;;;;;;;7371518;19;21431;-68
2023/01/04 06:39:39;;;;;;;0.10;0.10;;;;;;;;;;7373962;19;20689;-68
2023/01/04 06:42:43;;;;;;;0.10;0.10;;;;;;;;;;7371913;19;20615;-67
2023/01/04 06:44:57;;;;;;;0.10;0.10;;;;;;;;;;7371791;19;21337;-68
2023/01/04 06:47:29;;;;;;;0.10;0.10;;;;;;;;;;7370131;19;20749;-68
2023/01/04 06:49:58;;;;;;;0.10;0.10;;;;;;;;;;7371214;19;20701;-68
2023/01/04 06:52:27;;;;;;;0.10;0.10;;;;;;;;;;7374583;19;20638;-69
2023/01/04 06:54:56;;;;;;;0.10;0.10;;;;;;;;;;7374153;19;20604;-69
2023/01/04 06:57:26;;;;;;;0.10;0.10;;;;;;;;;;7371916;19;20667;-72
2023/01/04 06:59:55;;;;;;;0.10;0.10;;;;;;;;;;7373800;19;20615;-68
2023/01/04 07:02:25;;;;;;;0.10;0.10;;;;;;;;;;7374207;19;20623;-68
2023/01/04 07:04:57;;;;;;;0.00;0.00;;;;;;;;;;7372834;19;20656;-68
2023/01/04 07:07:27;;;;;;;0.10;0.10;;;;;;;;;;7372596;19;20666;-66
2023/01/04 07:10:00;;;;;;;0.10;0.10;;;;;;;;;;7375097;19;20607;-66
2023/01/04 07:12:29;;;;;;;0.10;0.10;;;;;;;;;;7375401;19;20665;-67
2023/01/04 07:14:58;;;;;;;0.10;0.10;;;;;;;;;;7374629;19;20683;-67
2023/01/04 07:17:28;;;;;;;0.10;0.10;;;;;;;;;;7371145;19;21078;-66
2023/01/04 07:20:00;;;;;;;0.10;0.10;;;;;;;;;;7373541;19;20646;-67
2023/01/04 07:22:29;;;;;;;0.00;0.00;;;;;;;;;;7372364;19;20622;-66
2023/01/04 07:24:59;;;;;;;0.10;0.10;;;;;;;;;;7375357;19;20810;-66
2023/01/04 07:27:31;;;;;;;0.10;0.10;;;;;;;;;;7373495;19;20651;-66
2023/01/04 07:30:01;;;;;;;0.10;0.10;;;;;;;;;;7376544;19;20599;-66
2023/01/04 07:32:30;;;;;;;0.00;0.00;;;;;;;;;;7380169;19;20623;-66
2023/01/04 07:35:02;;;;;;;0.03;0.03;;;;;;;;;;7378720;19;20623;-65
2023/01/04 07:37:31;;;;;;;0.10;0.10;;;;;;;;;;7378311;19;20619;-67
2023/01/04 07:40:00;;;;;;;0.10;0.10;;;;;;;;;;7381166;19;20595;-68
2023/01/04 07:42:30;;;;;;;0.10;0.10;;;;;;;;;;7379845;19;20631;-69
2023/01/04 07:45:04;;;;;;;0.10;0.10;;;;;;;;;;7378692;19;20737;-69
2023/01/04 07:47:33;;;;;;;0.10;0.10;;;;;;;;;;7379210;19;20623;-70
2023/01/04 07:50:05;;;;;;;0.10;0.10;;;;;;;;;;7381092;19;20615;-69
2023/01/04 07:52:34;;;;;;;0.10;0.10;;;;;;;;;;7379994;19;20619;-68
2023/01/04 07:55:04;;;;;;;0.10;0.10;;;;;;;;;;7380531;19;20607;-67
2023/01/04 07:57:33;;;;;;;0.10;0.10;;;;;;;;;;7377594;19;20724;-67
2023/01/04 08:00:02;;;;;;;0.10;0.10;;;;;;;;;;7380808;19;20603;-67
2023/01/04 08:02:45;;;;;;;0.10;0.10;;;;;;;;;;7381175;19;20600;-66
2023/01/04 08:05:19;;;;;;;0.10;0.10;;;;;;;;;;7378815;19;20767;-67
2023/01/04 08:07:49;;;;;;;0.10;0.10;;;;;;;;;;7376468;19;20703;-68
2023/01/04 08:10:18;;;;;;;0.10;0.10;;;;;;;;;;7379078;19;20656;-66
2023/01/04 08:12:47;;;;;;;0.00;0.00;;;;;;;;;;7375924;19;20627;-66
2023/01/04 08:15:16;;;;;;;0.10;0.10;;;;;;;;;;7378535;19;20618;-66
2023/01/04 08:17:45;;;;;;;0.10;0.10;;;;;;;;;;7376254;19;20676;-66
2023/01/04 08:20:17;;;;;;;0.10;0.10;;;;;;;;;;7377303;19;20757;-67
2023/01/04 08:22:46;;;;;;;0.10;0.10;;;;;;;;;;7377128;19;20652;-67
2023/01/04 08:25:15;;;;;;;0.10;0.10;;;;;;;;;;7376919;19;20671;-67
2023/01/04 08:27:44;;;;;;;0.10;0.10;;;;;;;;;;7373280;19;20648;-66
2023/01/04 08:30:13;;;;;;;0.10;0.10;;;;;;;;;;7376743;19;20659;-69
2023/01/04 08:32:42;;;;;;;0.10;0.10;;;;;;;;;;7377663;19;20606;-67
2023/01/04 08:35:11;;;;;;;0.10;0.10;;;;;;;;;;7374768;19;20698;-66
2023/01/04 08:37:43;;;;;;;0.00;0.00;;;;;;;;;;7376241;19;20623;-66
2023/01/04 08:40:12;;;;;;;0.10;0.10;;;;;;;;;;7377441;19;20645;-66
2023/01/04 08:42:41;;;;;;;0.10;0.10;;;;;;;;;;7376822;19;20964;-66
2023/01/04 08:45:11;;;;;;;0.10;0.10;;;;;;;;;;7377294;19;20632;-66
2023/01/04 08:47:39;;;;;;;0.10;0.10;;;;;;;;;;7375068;19;20711;-67
2023/01/04 08:50:08;;;;;;;0.10;0.10;;;;;;;;;;7375572;19;20728;-66
2023/01/04 08:52:37;;;;;;;0.00;0.00;;;;;;;;;;7376524;19;20661;-67
2023/01/04 08:55:09;;;;;;;0.10;0.10;;;;;;;;;;7375263;19;20729;-67
2023/01/04 08:57:38;;;;;;;0.10;0.10;;;;;;;;;;7374053;19;20674;-67
2023/01/04 09:00:11;;;;;;;0.10;0.10;;;;;;;;;;7375130;19;20627;-67
2023/01/04 09:02:40;;;;;;;0.00;0.00;;;;;;;;;;7374669;19;20626;-67
2023/01/04 09:05:09;;;;;;;0.10;0.10;;;;;;;;;;7375705;19;20671;-66
2023/01/04 09:07:38;;;;;;;0.10;0.10;;;;;;;;;;7374566;19;20651;-67
2023/01/04 09:10:10;;;;;;;0.10;0.10;;;;;;;;;;7376321;19;20640;-66
2023/01/04 09:12:41;;;;;;;0.10;0.10;;;;;;;;;;7378475;19;20672;-66
2023/01/04 09:15:17;;;;;;;0.00;0.00;;;;;;;;;;7378213;19;20672;-66
2023/01/04 09:17:47;;;;;;;0.10;0.10;;;;;;;;;;7377121;19;20687;-67
2023/01/04 09:20:16;;;;;;;0.10;0.10;;;;;;;;;;7378749;19;20636;-66
2023/01/04 09:22:45;;;;;;;0.03;0.03;;;;;;;;;;7377204;19;20615;-66
2023/01/04 09:25:17;;;;;;;0.10;0.10;;;;;;;;;;7375805;19;20761;-66
2023/01/04 09:27:46;;;;;;;0.00;0.00;;;;;;;;;;7376857;19;20670;-67
2023/01/04 09:30:16;;;;;;;0.10;0.10;;;;;;;;;;7376834;19;20650;-66
2023/01/04 09:32:45;;;;;;;0.10;0.10;;;;;;;;;;7376741;19;20616;-66
2023/01/04 09:35:14;;;;;;;0.00;0.00;;;;;;;;;;7375056;19;20669;-66
2023/01/04 09:37:45;;;;;;;0.10;0.10;;;;;;;;;;7377075;19;20982;-67
2023/01/04 09:40:24;;;;;;;0.10;0.10;;;;;;;;;;7377656;19;20660;-67
2023/01/04 09:42:54;;;;;;;0.03;0.03;;;;;;;;;;7376143;19;20619;-67
2023/01/04 09:45:25;;;;;;;0.10;0.10;;;;;;;;;;7376864;19;20703;-66
2023/01/04 09:47:57;;;;;;;0.10;0.10;;;;;;;;;;7375223;19;20671;-67
2023/01/04 09:50:28;;;;;;;0.00;0.00;;;;;;;;;;7374624;19;20638;-66
2023/01/04 09:53:01;;;;;;;0.10;0.10;;;;;;;;;;7377144;19;20595;-67
2023/01/04 09:55:34;;;;;;;0.10;0.10;;;;;;;;;;7375314;19;20615;-67
2023/01/04 09:58:04;;;;;;;0.10;0.10;;;;;;;;;;7372246;19;20714;-66
2023/01/04 10:00:36;;;;;;;0.10;0.10;;;;;;;;;;7375439;19;20626;-67
2023/01/04 10:03:07;;;;;;;0.10;0.10;;;;;;;;;;7374661;19;20671;-66
2023/01/04 10:05:37;;;;;;;0.10;0.10;;;;;;;;;;7376166;19;20710;-66
2023/01/04 10:08:06;;;;;;;0.10;0.10;;;;;;;;;;7373666;19;20671;-67
2023/01/04 10:10:50;;;;;;;0.10;0.10;;;;;;;;;;7376384;19;20611;-67
2023/01/04 10:13:32;;;;;;;0.00;0.00;;;;;;;;;;7375785;19;20678;-66
2023/01/04 10:16:05;;;;;;;0.00;0.00;;;;;;;;;;7376063;19;20618;-66
2023/01/04 10:18:39;;;;;;;0.10;0.10;;;;;;;;;;7373889;19;20615;-66
2023/01/04 10:21:25;;;;;;;0.10;0.10;;;;;;;;;;7375981;19;20645;-66
2023/01/04 10:23:58;;;;;;;0.00;0.00;;;;;;;;;;7374114;19;20662;-66
2023/01/04 10:26:33;;;;;;;0.10;0.10;;;;;;;;;;7373886;19;20708;-65
2023/01/04 10:29:12;;;;;;;0.10;0.10;;;;;;;;;;7376568;19;20607;-65
2023/01/04 10:31:44;;;;;;;0.00;0.00;;;;;;;;;;7373474;19;20626;-65
2023/01/04 10:34:18;;;;;;;0.00;0.00;;;;;;;;;;7374478;19;20732;-66
2023/01/04 10:36:50;;;;;;;0.03;0.03;;;;;;;;;;7375862;19;20778;-67
2023/01/04 10:39:20;;;;;;;0.10;0.10;;;;;;;;;;7375191;19;20734;-65
2023/01/04 10:41:54;;;;;;;0.10;0.10;;;;;;;;;;7383237;19;20657;-65
2023/01/04 10:44:26;;;;;;;0.00;0.00;;;;;;;;;;7377811;19;20632;-67
2023/01/04 10:47:00;;;;;;;0.10;0.10;;;;;;;;;;7374677;19;20607;-67
2023/01/04 10:49:31;;;;;;;0.10;0.10;;;;;;;;;;7373697;19;20626;-67
2023/01/04 10:52:02;;;;;;;0.00;0.00;;;;;;;;;;7374736;19;20623;-66
2023/01/04 10:54:36;;;;;;;0.00;0.00;;;;;;;;;;7373449;19;20642;-65
2023/01/04 10:57:12;;;;;;;0.00;0.00;;;;;;;;;;7372661;19;20713;-66
2023/01/04 10:59:45;;;;;;;0.00;0.00;;;;;;;;;;7373547;19;20725;-65
2023/01/04 11:02:18;;;;;;;0.10;0.10;;;;;;;;;;7373669;19;20679;-66
2023/01/04 11:04:51;;;;;;;0.10;0.10;;;;;;;;;;7372969;19;20656;-65
2023/01/04 11:07:22;;;;;;;0.00;0.00;;;;;;;;;;7379009;19;20662;-66
2023/01/04 11:09:53;;;;;;;0.10;0.10;;;;;;;;;;7380708;19;20657;-66
2023/01/04 11:12:26;;;;;;;0.00;0.00;;;;;;;;;;7379590;19;20673;-65
2023/01/04 11:14:55;;;;;;;0.10;0.10;;;;;;;;;;7379401;19;20657;-67
2023/01/04 11:17:28;;;;;;;0.10;0.10;;;;;;;;;;7378005;19;20663;-67
2023/01/04 11:19:57;;;;;;;0.10;0.10;;;;;;;;;;7379251;19;20673;-66
2023/01/04 11:22:28;;;;;;;0.10;0.10;;;;;;;;;;7381591;19;20607;-66
2023/01/04 11:25:02;;;;;;;0.10;0.10;;;;;;;;;;7380156;19;20646;-66
2023/01/04 11:27:37;;;;;;;0.10;0.10;;;;;;;;;;7379532;19;20744;-66
2023/01/04 11:30:08;;;;;;;0.00;0.00;;;;;;;;;;7379879;19;20614;-68
2023/01/04 11:32:40;;;;;;;0.10;0.10;;;;;;;;;;7382541;19;20615;-67
2023/01/04 11:35:10;;;;;;;0.00;0.00;;;;;;;;;;7382448;19;20595;-68
2023/01/04 11:37:41;;;;;;;0.00;0.00;;;;;;;;;;7378115;19;20674;-68
2023/01/04 11:40:24;;;;;;;0.00;0.00;;;;;;;;;;7382146;19;20599;-67
2023/01/04 11:43:11;;;;;;;0.00;0.00;;;;;;;;;;7379766;19;20614;-66
2023/01/04 11:45:40;;;;;;;0.10;0.10;;;;;;;;;;7379797;19;20635;-67
2023/01/04 11:48:17;;;;;;;0.10;0.10;;;;;;;;;;7380482;19;20956;-67
2023/01/04 11:50:54;;;;;;;0.00;0.00;;;;;;;;;;7380135;19;20672;-66
2023/01/04 11:53:28;;;;;;;0.10;0.10;;;;;;;;;;7378868;19;20634;-66
2023/01/04 11:56:12;;;;;;;0.10;0.10;;;;;;;;;;7378507;19;20627;-65
2023/01/04 11:58:44;;;;;;;0.10;0.10;;;;;;;;;;7379971;19;20680;-66
2023/01/04 12:01:24;;;;;;;0.00;0.00;;;;;;;;;;7379142;19;20626;-66
2023/01/04 12:03:54;;;;;;;0.10;0.10;;;;;;;;;;7380739;19;20676;-66
2023/01/04 12:06:27;;;;;;;0.00;0.00;;;;;;;;;;7377320;19;20751;-67
2023/01/04 12:08:56;;;;;;;0.00;0.00;;;;;;;;;;7380037;19;20614;-67
2023/01/04 12:11:28;;;;;;;0.00;0.00;;;;;;;;;;7379300;19;20625;-70
2023/01/04 12:14:01;;;;;;;0.10;0.10;;;;;;;;;;7380729;19;20717;-69
2023/01/04 12:16:42;;;;;;;0.10;0.10;;;;;;;;;;7375376;19;20654;-68
2023/01/04 12:19:13;;;;;;;0.10;0.10;;;;;;;;;;7375587;19;20631;-70
2023/01/04 12:21:44;;;;;;;0.10;0.10;;;;;;;;;;7379567;19;20595;-68
2023/01/04 12:24:18;;;;;;;0.00;0.00;;;;;;;;;;7380204;19;20608;-68
2023/01/04 12:26:48;;;;;;;0.00;0.00;;;;;;;;;;7379892;19;20622;-69
2023/01/04 12:29:32;;;;;;;0.10;0.10;;;;;;;;;;7378008;19;20631;-68
2023/01/04 12:32:17;;;;;;;0.10;0.10;;;;;;;;;;7379351;19;20640;-69
2023/01/04 12:34:50;;;;;;;0.10;0.10;;;;;;;;;;7377706;19;20626;-69
2023/01/04 12:37:34;;;;;;;0.10;0.10;;;;;;;;;;7378153;19;20635;-67
2023/01/04 12:40:04;;;;;;;0.10;0.10;;;;;;;;;;7378535;19;21032;-68
2023/01/04 12:42:33;;;;;;;0.10;0.10;;;;;;;;;;7378697;19;20694;-67
2023/01/04 12:45:05;;;;;;;0.10;0.10;;;;;;;;;;7376603;19;20639;-68
2023/01/04 12:50:29;;;;;;;0.10;0.10;;;;;;;;;;7378117;19;21014;-67
2023/01/04 12:53:03;;;;;;;0.03;0.03;;;;;;;;;;7377675;19;20660;-68
2023/01/04 12:55:59;;;;;;;0.00;0.00;;;;;;;;;;7376562;19;20618;-68
2023/01/04 12:58:45;;;;;;;0.00;0.00;;;;;;;;;;7376284;19;20627;-67
2023/01/04 13:01:26;;;;;;;0.10;0.10;;;;;;;;;;7377652;19;20599;-67
2023/01/04 13:03:59;;;;;;;0.10;0.10;;;;;;;;;;7377967;19;20645;-68
2023/01/04 13:06:34;;;;;;;0.00;0.00;;;;;;;;;;7376383;19;20650;-68
2023/01/04 13:09:04;;;;;;;0.10;0.10;;;;;;;;;;7376812;19;20595;-67
2023/01/04 13:11:54;;;;;;;0.07;0.07;;;;;;;;;;7379295;19;20619;-68
2023/01/04 13:14:28;;;;;;;0.00;0.00;;;;;;;;;;7373472;19;20630;-68
2023/01/04 13:17:11;;;;;;;0.07;0.07;;;;;;;;;;7378027;19;20626;-66
2023/01/04 13:19:42;;;;;;;0.10;0.10;;;;;;;;;;7377929;19;20721;-67
2023/01/04 13:22:20;;;;;;;0.00;0.00;;;;;;;;;;7377026;19;20579;-67
2023/01/04 13:24:50;;;;;;;0.00;0.00;;;;;;;;;;7375789;19;20631;-68
2023/01/04 13:27:20;;;;;;;0.10;0.10;;;;;;;;;;7377009;19;20620;-69
2023/01/04 13:29:51;;;;;;;0.10;0.10;;;;;;;;;;7376659;19;20670;-69
2023/01/04 13:32:24;;;;;;;0.10;0.10;;;;;;;;;;7377909;19;20611;-69
2023/01/04 13:34:54;;;;;;;0.10;0.10;;;;;;;;;;7377079;19;20619;-66
2023/01/04 13:37:34;;;;;;;0.10;0.10;;;;;;;;;;7374093;19;20793;-68
2023/01/04 13:40:18;;;;;;;0.10;0.10;;;;;;;;;;7377904;19;20671;-67
2023/01/04 13:42:49;;;;;;;0.10;0.10;;;;;;;;;;7377350;19;20599;-67
2023/01/04 13:45:31;;;;;;;0.00;0.00;;;;;;;;;;7377185;19;20730;-67
2023/01/04 13:48:01;;;;;;;0.00;0.00;;;;;;;;;;7374972;19;20662;-67
2023/01/04 13:50:33;;;;;;;0.10;0.10;;;;;;;;;;7376840;19;20755;-68
2023/01/04 13:53:06;;;;;;;0.00;0.00;;;;;;;;;;7375649;19;20622;-66
2023/01/04 13:55:36;;;;;;;0.00;0.00;;;;;;;;;;7377459;19;20575;-66
2023/01/04 13:58:06;;;;;;;0.10;0.10;;;;;;;;;;7373685;19;20712;-67
2023/01/04 14:00:37;;;;;;;0.00;0.00;;;;;;;;;;7378245;19;20644;-66
2023/01/04 14:03:09;;;;;;;0.00;0.00;;;;;;;;;;7378188;19;20651;-67
2023/01/04 14:05:39;;;;;;;0.00;0.00;;;;;;;;;;7376920;19;20156;-69
2023/01/04 14:08:14;;;;;;;0.10;0.10;;;;;;;;;;7374954;19;21141;-68
2023/01/04 14:10:45;;;;;;;0.00;0.00;;;;;;;;;;7375511;19;20158;-70
2023/01/04 14:13:17;;;;;;;0.00;0.00;;;;;;;;;;7377006;19;20659;-68
2023/01/04 14:15:46;;;;;;;0.03;0.03;;;;;;;;;;7374160;19;20643;-66
2023/01/04 14:18:28;;;;;;;0.00;0.00;;;;;;;;;;7375397;19;20144;-68
2023/01/04 14:20:57;;;;;;;0.10;0.10;;;;;;;;;;7375559;19;20661;-67
2023/01/04 14:23:37;;;;;;;0.00;0.00;;;;;;;;;;7373061;19;20192;-67
2023/01/04 14:26:06;;;;;;;0.00;0.00;;;;;;;;;;7374836;19;20753;-67
2023/01/04 14:28:44;;;;;;;0.00;0.00;;;;;;;;;;7374142;19;20638;-67
2023/01/04 14:31:20;;;;;;;0.10;0.10;;;;;;;;;;7374936;19;20728;-67
2023/01/04 14:33:50;;;;;;;0.00;0.00;;;;;;;;;;7373999;19;20163;-67
2023/01/04 14:36:21;;;;;;;0.00;0.00;;;;;;;;;;7373743;19;20155;-66
2023/01/04 14:38:57;;;;;;;0.10;0.10;;;;;;;;;;7372391;19;20616;-66
2023/01/04 14:41:27;;;;;;;0.00;0.00;;;;;;;;;;7378617;19;20249;-67
2023/01/04 14:44:05;;;;;;;0.00;0.00;;;;;;;;;;7379668;19;20567;-67
2023/01/04 14:46:34;;;;;;;0.00;0.00;;;;;;;;;;7381447;19;20162;-67
2023/01/04 14:49:04;;;;;;;0.10;0.10;;;;;;;;;;7382019;19;20133;-68
2023/01/04 14:51:37;;;;;;;0.03;0.03;;;;;;;;;;7381828;19;20405;-68
2023/01/04 14:54:18;;;;;;;0.00;0.00;;;;;;;;;;7380386;19;20163;-66
2023/01/04 14:56:48;;;;;;;0.00;0.00;;;;;;;;;;7380177;19;20177;-67
2023/01/04 14:59:22;;;;;;;0.00;0.00;;;;;;;;;;7381258;19;20149;-68
2023/01/04 15:01:51;;;;;;;0.00;0.00;;;;;;;;;;7381240;19;20627;-65
2023/01/04 15:04:23;;;;;;;0.00;0.00;;;;;;;;;;7378818;19;20153;-67
2023/01/04 15:06:54;;;;;;;0.00;0.00;;;;;;;;;;7378653;19;20172;-66
2023/01/04 15:09:26;;;;;;;0.00;0.00;;;;;;;;;;7381270;19;20157;-66
2023/01/04 15:11:56;;;;;;;0.10;0.10;;;;;;;;;;7379641;19;20152;-66
2023/01/04 15:14:25;;;;;;;0.10;0.10;;;;;;;;;;7380389;19;20221;-65
2023/01/04 15:16:54;;;;;;;0.10;0.10;;;;;;;;;;7379702;19;20184;-68
2023/01/04 15:19:24;;;;;;;0.00;0.00;;;;;;;;;;7379001;19;20152;-65
2023/01/04 15:21:53;;;;;;;0.10;0.10;;;;;;;;;;7381236;19;20152;-67
2023/01/04 15:24:25;;;;;;;0.00;0.00;;;;;;;;;;7379766;19;20232;-68
2023/01/04 15:26:55;;;;;;;0.00;0.00;;;;;;;;;;7379717;19;20188;-68
2023/01/04 15:29:24;;;;;;;0.00;0.00;;;;;;;;;;7380203;19;20224;-66
2023/01/04 15:31:54;;;;;;;0.00;0.00;;;;;;;;;;7380640;19;20161;-66
2023/01/04 15:34:23;;;;;;;0.00;0.00;;;;;;;;;;7379151;19;20153;-70
2023/01/04 15:36:53;;;;;;;0.10;0.10;;;;;;;;;;7378071;19;20215;-66
2023/01/04 15:39:22;;;;;;;0.00;0.00;;;;;;;;;;7378207;19;20157;-68
2023/01/04 15:44:35;;;;;;;0.00;0.00;;;;;;;;;;7377423;19;20618;-66
2023/01/04 15:47:04;;;;;;;0.10;0.10;;;;;;;;;;7378002;19;20207;-66
2023/01/04 15:49:33;;;;;;;0.10;0.10;;;;;;;;;;7378366;19;20232;-66
2023/01/04 15:52:02;;;;;;;0.00;0.00;;;;;;;;;;7380777;19;20145;-66
2023/01/04 15:54:31;;;;;;;0.00;0.00;;;;;;;;;;7379347;19;20208;-68
2023/01/04 15:57:02;;;;;;;0.00;0.00;;;;;;;;;;7379049;19;20160;-65
2023/01/04 15:59:31;;;;;;;0.00;0.00;;;;;;;;;;7376483;19;20153;-66
2023/01/04 16:02:00;;;;;;;0.10;0.10;;;;;;;;;;7380581;19;20208;-67
2023/01/04 16:04:29;;;;;;;0.10;0.10;;;;;;;;;;7377742;19;20151;-66